To NAV CANADA Home Page Login to a new session Search on AWWS site Disclaimer Vers la page française équivalente Tips FAQ What's new on the site To the Forecasts and Observations / NOTAM section To "File a Flight Plan" website Publications and other links Update of the User's profile FIC Telephone Numbers My Weather Data Folder Route Weather Data Regional Weather Data Local Weather Data To the Forecasts and Observations / NOTAM section
Request Generated 10/21/2018 at 06:00:26 UTC . Weather information available at that time is displayed.

METAR/TAF

VANCOUVER INTL/BC    (show WxCam)

METAR CYVR 210500Z 36002KT 20SM FEW240 08/07 A3006 RMK CS2 SLP182=
METAR CYVR 210400Z 03003KT 20SM FEW240 10/09 A3007 RMK CS2 SLP183=
METAR CYVR 210300Z 35002KT 20SM FEW240 09/09 A3007 RMK CS1 SLP183=

TAF CYVR 210538Z 2106/2212 VRB03KT P6SM FEW240
FM210900 VRB03KT P6SM FEW005 SCT250 PROB30 2109/2112 1/2SM FG
BKN005
FM211200 VRB03KT P6SM VCFG SCT003 BKN240 TEMPO 2112/2118 1/4SM FG
BKN003
FM211800 VRB03KT P6SM FEW005 SCT260 TEMPO 2118/2120 2SM BR SCT005
FM212000 27008KT P6SM SCT260
FM220600 VRB03KT P6SM FEW012
RMK NXT FCST BY 210900Z=
Your time UTC time
Weather data provided by Environment Canada and NAV CANADA